sensor_id;sensor_type;location;lat;lon;timestamp;P1;durP1;ratioP1;P2;durP2;ratioP2
23148;SDS011;11743;51.228;22.498;2022-10-31T00:00:19;32.13;;;22.35;;
23148;SDS011;11743;51.228;22.498;2022-10-31T00:00:42;30.50;;;22.23;;
23148;SDS011;11743;51.228;22.498;2022-10-31T00:01:10;31.42;;;21.30;;
23148;SDS011;11743;51.228;22.498;2022-10-31T00:01:51;34.10;;;21.48;;
23148;SDS011;11743;51.228;22.498;2022-10-31T00:02:13;34.70;;;22.02;;
23148;SDS011;11743;51.228;22.498;2022-10-31T00:02:35;31.95;;;21.05;;
23148;SDS011;11743;51.228;22.498;2022-10-31T00:02:57;35.67;;;21.70;;
23148;SDS011;11743;51.228;22.498;2022-10-31T00:03:20;31.35;;;20.77;;
23148;SDS011;11743;51.228;22.498;2022-10-31T00:03:42;28.92;;;20.13;;
23148;SDS011;11743;51.228;22.498;2022-10-31T00:04:04;29.52;;;20.65;;
23148;SDS011;11743;51.228;22.498;2022-10-31T00:04:27;32.35;;;21.27;;
23148;SDS011;11743;51.228;22.498;2022-10-31T00:04:49;30.55;;;21.23;;
23148;SDS011;11743;51.228;22.498;2022-10-31T00:05:11;30.90;;;20.35;;
23148;SDS011;11743;51.228;22.498;2022-10-31T00:05:33;33.05;;;21.48;;
23148;SDS011;11743;51.228;22.498;2022-10-31T00:05:55;34.50;;;21.98;;
23148;SDS011;11743;51.228;22.498;2022-10-31T00:06:17;33.55;;;20.92;;
23148;SDS011;11743;51.228;22.498;2022-10-31T00:06:39;33.97;;;21.10;;
23148;SDS011;11743;51.228;22.498;2022-10-31T00:07:01;33.53;;;22.20;;
23148;SDS011;11743;51.228;22.498;2022-10-31T00:07:23;33.92;;;22.95;;
23148;SDS011;11743;51.228;22.498;2022-10-31T00:07:45;44.55;;;31.73;;
23148;SDS011;11743;51.228;22.498;2022-10-31T00:08:06;44.90;;;33.00;;
23148;SDS011;11743;51.228;22.498;2022-10-31T00:08:28;42.17;;;29.63;;
23148;SDS011;11743;51.228;22.498;2022-10-31T00:08:54;48.92;;;33.05;;
23148;SDS011;11743;51.228;22.498;2022-10-31T00:09:18;41.13;;;29.58;;
23148;SDS011;11743;51.228;22.498;2022-10-31T00:09:40;41.33;;;30.23;;
23148;SDS011;11743;51.228;22.498;2022-10-31T00:10:01;45.30;;;30.38;;
23148;SDS011;11743;51.228;22.498;2022-10-31T00:10:23;38.08;;;27.08;;
23148;SDS011;11743;51.228;22.498;2022-10-31T00:10:45;36.85;;;25.42;;
23148;SDS011;11743;51.228;22.498;2022-10-31T00:11:08;37.15;;;24.52;;
23148;SDS011;11743;51.228;22.498;2022-10-31T00:11:31;35.67;;;24.50;;
23148;SDS011;11743;51.228;22.498;2022-10-31T00:11:53;36.88;;;24.85;;
23148;SDS011;11743;51.228;22.498;2022-10-31T00:12:15;36.67;;;23.60;;
23148;SDS011;11743;51.228;22.498;2022-10-31T00:12:37;34.92;;;22.88;;
23148;SDS011;11743;51.228;22.498;2022-10-31T00:12:59;34.38;;;23.88;;
23148;SDS011;11743;51.228;22.498;2022-10-31T00:13:22;33.53;;;22.77;;
23148;SDS011;11743;51.228;22.498;2022-10-31T00:13:44;37.47;;;23.20;;
23148;SDS011;11743;51.228;22.498;2022-10-31T00:14:06;40.72;;;24.08;;
23148;SDS011;11743;51.228;22.498;2022-10-31T00:14:27;34.55;;;23.35;;
23148;SDS011;11743;51.228;22.498;2022-10-31T00:14:50;35.42;;;24.02;;
23148;SDS011;11743;51.228;22.498;2022-10-31T00:15:12;35.70;;;23.67;;
23148;SDS011;11743;51.228;22.498;2022-10-31T00:15:34;35.20;;;24.15;;
23148;SDS011;11743;51.228;22.498;2022-10-31T00:15:56;33.35;;;22.98;;
23148;SDS011;11743;51.228;22.498;2022-10-31T00:16:20;33.17;;;22.33;;
23148;SDS011;11743;51.228;22.498;2022-10-31T00:16:43;31.88;;;22.05;;
23148;SDS011;11743;51.228;22.498;2022-10-31T00:17:05;34.72;;;23.70;;
23148;SDS011;11743;51.228;22.498;2022-10-31T00:17:27;34.33;;;23.42;;
23148;SDS011;11743;51.228;22.498;2022-10-31T00:17:49;38.25;;;22.90;;
23148;SDS011;11743;51.228;22.498;2022-10-31T00:18:11;36.80;;;23.63;;
23148;SDS011;11743;51.228;22.498;2022-10-31T00:18:33;37.95;;;23.98;;
23148;SDS011;11743;51.228;22.498;2022-10-31T00:18:58;38.38;;;24.25;;
23148;SDS011;11743;51.228;22.498;2022-10-31T00:19:21;34.80;;;23.55;;
23148;SDS011;11743;51.228;22.498;2022-10-31T00:19:43;35.30;;;23.60;;
23148;SDS011;11743;51.228;22.498;2022-10-31T00:20:05;36.55;;;23.73;;
23148;SDS011;11743;51.228;22.498;2022-10-31T00:20:28;36.03;;;23.80;;
23148;SDS011;11743;51.228;22.498;2022-10-31T00:20:57;36.00;;;23.77;;
23148;SDS011;11743;51.228;22.498;2022-10-31T00:21:20;36.45;;;23.25;;
23148;SDS011;11743;51.228;22.498;2022-10-31T00:21:42;34.33;;;22.90;;
23148;SDS011;11743;51.228;22.498;2022-10-31T00:22:03;37.80;;;23.92;;
23148;SDS011;11743;51.228;22.498;2022-10-31T00:22:26;39.10;;;25.63;;
23148;SDS011;11743;51.228;22.498;2022-10-31T00:22:47;39.92;;;24.00;;
23148;SDS011;11743;51.228;22.498;2022-10-31T00:23:10;38.28;;;24.30;;
23148;SDS011;11743;51.228;22.498;2022-10-31T00:23:32;37.38;;;23.98;;
23148;SDS011;11743;51.228;22.498;2022-10-31T00:23:54;34.78;;;23.48;;
23148;SDS011;11743;51.228;22.498;2022-10-31T00:24:17;32.67;;;21.70;;
23148;SDS011;11743;51.228;22.498;2022-10-31T00:24:39;33.08;;;23.23;;
23148;SDS011;11743;51.228;22.498;2022-10-31T00:25:01;36.45;;;23.02;;
23148;SDS011;11743;51.228;22.498;2022-10-31T00:25:23;31.92;;;22.38;;
23148;SDS011;11743;51.228;22.498;2022-10-31T00:25:46;33.40;;;22.38;;
23148;SDS011;11743;51.228;22.498;2022-10-31T00:26:07;30.20;;;21.20;;
23148;SDS011;11743;51.228;22.498;2022-10-31T00:26:30;33.28;;;21.45;;
23148;SDS011;11743;51.228;22.498;2022-10-31T00:26:52;31.65;;;21.60;;
23148;SDS011;11743;51.228;22.498;2022-10-31T00:27:14;33.47;;;22.10;;
23148;SDS011;11743;51.228;22.498;2022-10-31T00:27:36;34.53;;;21.40;;
23148;SDS011;11743;51.228;22.498;2022-10-31T00:27:58;31.52;;;21.75;;
23148;SDS011;11743;51.228;22.498;2022-10-31T00:28:21;31.95;;;22.15;;
23148;SDS011;11743;51.228;22.498;2022-10-31T00:28:42;31.25;;;21.65;;
23148;SDS011;11743;51.228;22.498;2022-10-31T00:29:04;31.48;;;20.85;;
23148;SDS011;11743;51.228;22.498;2022-10-31T00:29:26;31.27;;;21.42;;
23148;SDS011;11743;51.228;22.498;2022-10-31T00:29:48;32.70;;;21.90;;
23148;SDS011;11743;51.228;22.498;2022-10-31T00:30:11;34.33;;;22.65;;
23148;SDS011;11743;51.228;22.498;2022-10-31T00:30:33;36.47;;;23.27;;
23148;SDS011;11743;51.228;22.498;2022-10-31T00:30:58;33.67;;;22.23;;
23148;SDS011;11743;51.228;22.498;2022-10-31T00:31:20;30.42;;;21.88;;
23148;SDS011;11743;51.228;22.498;2022-10-31T00:31:42;31.35;;;21.40;;
23148;SDS011;11743;51.228;22.498;2022-10-31T00:32:04;31.65;;;21.52;;
23148;SDS011;11743;51.228;22.498;2022-10-31T00:32:28;31.38;;;21.77;;
23148;SDS011;11743;51.228;22.498;2022-10-31T00:32:51;34.42;;;21.77;;
23148;SDS011;11743;51.228;22.498;2022-10-31T00:33:12;33.60;;;22.50;;
23148;SDS011;11743;51.228;22.498;2022-10-31T00:33:35;34.33;;;23.27;;
23148;SDS011;11743;51.228;22.498;2022-10-31T00:33:58;37.65;;;22.98;;
23148;SDS011;11743;51.228;22.498;2022-10-31T00:34:20;34.75;;;22.42;;
23148;SDS011;11743;51.228;22.498;2022-10-31T00:34:42;36.15;;;23.33;;
23148;SDS011;11743;51.228;22.498;2022-10-31T00:35:04;35.72;;;24.00;;
23148;SDS011;11743;51.228;22.498;2022-10-31T00:35:26;36.30;;;23.90;;
23148;SDS011;11743;51.228;22.498;2022-10-31T00:35:51;33.88;;;23.58;;
23148;SDS011;11743;51.228;22.498;2022-10-31T00:36:14;34.80;;;23.40;;
23148;SDS011;11743;51.228;22.498;2022-10-31T00:36:37;33.53;;;23.13;;
23148;SDS011;11743;51.228;22.498;2022-10-31T00:36:59;31.30;;;22.27;;
23148;SDS011;11743;51.228;22.498;2022-10-31T00:37:21;35.15;;;23.02;;
23148;SDS011;11743;51.228;22.498;2022-10-31T00:37:43;32.63;;;22.80;;
23148;SDS011;11743;51.228;22.498;2022-10-31T00:38:05;32.38;;;23.05;;
23148;SDS011;11743;51.228;22.498;2022-10-31T00:38:27;36.55;;;22.60;;
23148;SDS011;11743;51.228;22.498;2022-10-31T00:38:49;32.30;;;21.75;;
23148;SDS011;11743;51.228;22.498;2022-10-31T00:39:11;32.08;;;23.55;;
23148;SDS011;11743;51.228;22.498;2022-10-31T00:39:33;34.45;;;23.35;;
23148;SDS011;11743;51.228;22.498;2022-10-31T00:39:55;34.65;;;23.35;;
23148;SDS011;11743;51.228;22.498;2022-10-31T00:40:17;37.00;;;23.37;;
23148;SDS011;11743;51.228;22.498;2022-10-31T00:40:38;38.00;;;23.42;;
23148;SDS011;11743;51.228;22.498;2022-10-31T00:41:00;32.33;;;23.15;;
23148;SDS011;11743;51.228;22.498;2022-10-31T00:41:22;36.97;;;23.90;;
23148;SDS011;11743;51.228;22.498;2022-10-31T00:41:44;36.05;;;23.55;;
23148;SDS011;11743;51.228;22.498;2022-10-31T00:42:06;35.50;;;23.25;;
23148;SDS011;11743;51.228;22.498;2022-10-31T00:42:28;34.20;;;23.27;;
23148;SDS011;11743;51.228;22.498;2022-10-31T00:42:50;38.00;;;23.17;;
23148;SDS011;11743;51.228;22.498;2022-10-31T00:43:12;36.17;;;23.65;;
23148;SDS011;11743;51.228;22.498;2022-10-31T00:43:34;32.50;;;22.35;;
23148;SDS011;11743;51.228;22.498;2022-10-31T00:43:56;32.42;;;22.75;;
23148;SDS011;11743;51.228;22.498;2022-10-31T00:44:17;33.97;;;23.10;;
23148;SDS011;11743;51.228;22.498;2022-10-31T00:44:39;33.50;;;23.52;;
23148;SDS011;11743;51.228;22.498;2022-10-31T00:45:01;33.35;;;22.60;;
23148;SDS011;11743;51.228;22.498;2022-10-31T00:45:23;33.60;;;22.83;;
23148;SDS011;11743;51.228;22.498;2022-10-31T00:45:45;34.33;;;23.55;;
23148;SDS011;11743;51.228;22.498;2022-10-31T00:46:07;34.13;;;23.65;;
23148;SDS011;11743;51.228;22.498;2022-10-31T00:46:29;36.83;;;22.88;;
23148;SDS011;11743;51.228;22.498;2022-10-31T00:46:52;35.75;;;23.02;;
23148;SDS011;11743;51.228;22.498;2022-10-31T00:47:14;31.85;;;21.35;;
23148;SDS011;11743;51.228;22.498;2022-10-31T00:47:36;31.63;;;22.30;;
23148;SDS011;11743;51.228;22.498;2022-10-31T00:47:58;28.60;;;21.45;;
23148;SDS011;11743;51.228;22.498;2022-10-31T00:48:21;33.50;;;22.42;;
23148;SDS011;11743;51.228;22.498;2022-10-31T00:48:43;34.10;;;22.92;;
23148;SDS011;11743;51.228;22.498;2022-10-31T00:49:05;34.63;;;22.25;;
23148;SDS011;11743;51.228;22.498;2022-10-31T00:49:27;33.42;;;22.95;;
23148;SDS011;11743;51.228;22.498;2022-10-31T00:49:49;31.40;;;22.70;;
23148;SDS011;11743;51.228;22.498;2022-10-31T00:50:10;34.25;;;23.08;;
23148;SDS011;11743;51.228;22.498;2022-10-31T00:50:32;35.95;;;24.00;;
23148;SDS011;11743;51.228;22.498;2022-10-31T00:50:54;37.15;;;23.45;;
23148;SDS011;11743;51.228;22.498;2022-10-31T00:51:16;33.15;;;23.00;;
23148;SDS011;11743;51.228;22.498;2022-10-31T00:51:38;38.10;;;23.58;;
23148;SDS011;11743;51.228;22.498;2022-10-31T00:52:00;36.22;;;24.00;;
23148;SDS011;11743;51.228;22.498;2022-10-31T00:52:22;34.05;;;23.45;;
23148;SDS011;11743;51.228;22.498;2022-10-31T00:52:44;32.67;;;22.67;;
23148;SDS011;11743;51.228;22.498;2022-10-31T00:53:06;33.03;;;23.33;;
23148;SDS011;11743;51.228;22.498;2022-10-31T00:53:28;31.58;;;22.70;;
23148;SDS011;11743;51.228;22.498;2022-10-31T00:53:49;35.75;;;23.00;;
23148;SDS011;11743;51.228;22.498;2022-10-31T00:54:11;36.30;;;23.23;;
23148;SDS011;11743;51.228;22.498;2022-10-31T00:54:33;34.65;;;23.67;;
23148;SDS011;11743;51.228;22.498;2022-10-31T00:54:55;39.35;;;23.88;;
23148;SDS011;11743;51.228;22.498;2022-10-31T00:55:16;39.72;;;24.15;;
23148;SDS011;11743;51.228;22.498;2022-10-31T00:55:38;34.28;;;23.70;;
23148;SDS011;11743;51.228;22.498;2022-10-31T00:56:00;35.55;;;24.55;;
23148;SDS011;11743;51.228;22.498;2022-10-31T00:56:22;38.58;;;25.25;;
23148;SDS011;11743;51.228;22.498;2022-10-31T00:56:44;35.50;;;24.25;;
23148;SDS011;11743;51.228;22.498;2022-10-31T00:57:06;32.13;;;22.90;;
23148;SDS011;11743;51.228;22.498;2022-10-31T00:57:28;39.10;;;24.67;;
23148;SDS011;11743;51.228;22.498;2022-10-31T00:57:50;44.58;;;25.92;;
23148;SDS011;11743;51.228;22.498;2022-10-31T00:58:12;48.75;;;28.23;;
23148;SDS011;11743;51.228;22.498;2022-10-31T00:58:39;50.13;;;29.02;;
23148;SDS011;11743;51.228;22.498;2022-10-31T00:59:01;51.55;;;28.40;;
23148;SDS011;11743;51.228;22.498;2022-10-31T00:59:23;49.00;;;27.17;;
23148;SDS011;11743;51.228;22.498;2022-10-31T00:59:45;48.40;;;26.83;;
23148;SDS011;11743;51.228;22.498;2022-10-31T01:00:07;44.92;;;25.35;;
23148;SDS011;11743;51.228;22.498;2022-10-31T01:00:29;37.72;;;24.23;;
23148;SDS011;11743;51.228;22.498;2022-10-31T01:00:51;36.97;;;23.73;;
23148;SDS011;11743;51.228;22.498;2022-10-31T01:01:16;35.85;;;23.50;;
23148;SDS011;11743;51.228;22.498;2022-10-31T01:01:39;37.83;;;23.85;;
23148;SDS011;11743;51.228;22.498;2022-10-31T01:02:01;38.83;;;24.33;;
23148;SDS011;11743;51.228;22.498;2022-10-31T01:02:23;35.55;;;24.42;;
23148;SDS011;11743;51.228;22.498;2022-10-31T01:02:45;38.70;;;26.20;;
23148;SDS011;11743;51.228;22.498;2022-10-31T01:03:07;41.53;;;25.77;;
23148;SDS011;11743;51.228;22.498;2022-10-31T01:03:30;40.90;;;24.88;;
23148;SDS011;11743;51.228;22.498;2022-10-31T01:03:52;39.60;;;25.27;;
23148;SDS011;11743;51.228;22.498;2022-10-31T01:04:14;41.95;;;25.77;;
23148;SDS011;11743;51.228;22.498;2022-10-31T01:04:36;34.83;;;24.20;;
23148;SDS011;11743;51.228;22.498;2022-10-31T01:04:58;34.10;;;23.00;;
23148;SDS011;11743;51.228;22.498;2022-10-31T01:05:19;36.60;;;23.48;;
23148;SDS011;11743;51.228;22.498;2022-10-31T01:05:42;36.58;;;23.50;;
23148;SDS011;11743;51.228;22.498;2022-10-31T01:06:26;35.50;;;24.33;;
23148;SDS011;11743;51.228;22.498;2022-10-31T01:06:48;33.28;;;23.30;;
23148;SDS011;11743;51.228;22.498;2022-10-31T01:07:10;35.85;;;23.15;;
23148;SDS011;11743;51.228;22.498;2022-10-31T01:07:37;35.25;;;22.95;;
23148;SDS011;11743;51.228;22.498;2022-10-31T01:07:59;34.08;;;22.65;;
23148;SDS011;11743;51.228;22.498;2022-10-31T01:08:22;33.70;;;22.35;;
23148;SDS011;11743;51.228;22.498;2022-10-31T01:08:43;32.38;;;22.20;;
23148;SDS011;11743;51.228;22.498;2022-10-31T01:09:06;31.60;;;21.70;;
23148;SDS011;11743;51.228;22.498;2022-10-31T01:09:27;30.45;;;21.05;;
23148;SDS011;11743;51.228;22.498;2022-10-31T01:09:49;32.35;;;21.77;;
23148;SDS011;11743;51.228;22.498;2022-10-31T01:10:12;32.83;;;22.52;;
23148;SDS011;11743;51.228;22.498;2022-10-31T01:10:34;35.28;;;22.92;;
23148;SDS011;11743;51.228;22.498;2022-10-31T01:11:30;32.78;;;22.00;;
23148;SDS011;11743;51.228;22.498;2022-10-31T01:11:52;30.33;;;21.25;;
23148;SDS011;11743;51.228;22.498;2022-10-31T01:12:14;27.10;;;19.40;;
23148;SDS011;11743;51.228;22.498;2022-10-31T01:12:36;28.98;;;19.85;;
23148;SDS011;11743;51.228;22.498;2022-10-31T01:13:02;31.02;;;20.63;;
23148;SDS011;11743;51.228;22.498;2022-10-31T01:13:25;30.17;;;20.05;;
23148;SDS011;11743;51.228;22.498;2022-10-31T01:13:47;30.02;;;20.38;;
23148;SDS011;11743;51.228;22.498;2022-10-31T01:14:11;33.17;;;21.05;;
23148;SDS011;11743;51.228;22.498;2022-10-31T01:14:33;32.03;;;21.30;;
23148;SDS011;11743;51.228;22.498;2022-10-31T01:14:55;29.05;;;21.23;;
23148;SDS011;11743;51.228;22.498;2022-10-31T01:15:18;30.27;;;21.45;;
23148;SDS011;11743;51.228;22.498;2022-10-31T01:15:41;32.72;;;21.88;;
23148;SDS011;11743;51.228;22.498;2022-10-31T01:16:03;31.08;;;20.30;;
23148;SDS011;11743;51.228;22.498;2022-10-31T01:16:26;30.02;;;20.52;;
23148;SDS011;11743;51.228;22.498;2022-10-31T01:16:50;32.90;;;22.15;;
23148;SDS011;11743;51.228;22.498;2022-10-31T01:17:12;33.92;;;21.73;;
23148;SDS011;11743;51.228;22.498;2022-10-31T01:17:35;33.65;;;22.08;;
23148;SDS011;11743;51.228;22.498;2022-10-31T01:17:57;35.65;;;23.77;;
23148;SDS011;11743;51.228;22.498;2022-10-31T01:18:19;34.00;;;23.10;;
23148;SDS011;11743;51.228;22.498;2022-10-31T01:18:41;34.72;;;23.00;;
23148;SDS011;11743;51.228;22.498;2022-10-31T01:19:03;33.60;;;22.03;;
23148;SDS011;11743;51.228;22.498;2022-10-31T01:19:25;32.95;;;21.83;;
23148;SDS011;11743;51.228;22.498;2022-10-31T01:19:47;30.55;;;21.65;;
23148;SDS011;11743;51.228;22.498;2022-10-31T01:20:09;30.42;;;21.38;;
23148;SDS011;11743;51.228;22.498;2022-10-31T01:20:32;34.25;;;21.92;;
23148;SDS011;11743;51.228;22.498;2022-10-31T01:21:01;36.30;;;22.70;;
23148;SDS011;11743;51.228;22.498;2022-10-31T01:21:24;36.85;;;23.90;;
23148;SDS011;11743;51.228;22.498;2022-10-31T01:21:48;33.50;;;22.73;;
23148;SDS011;11743;51.228;22.498;2022-10-31T01:22:09;34.00;;;22.50;;
23148;SDS011;11743;51.228;22.498;2022-10-31T01:22:31;34.85;;;22.45;;
23148;SDS011;11743;51.228;22.498;2022-10-31T01:22:54;35.65;;;22.73;;
23148;SDS011;11743;51.228;22.498;2022-10-31T01:23:16;30.45;;;21.63;;
23148;SDS011;11743;51.228;22.498;2022-10-31T01:23:38;31.17;;;22.30;;
23148;SDS011;11743;51.228;22.498;2022-10-31T01:24:00;31.08;;;21.83;;
23148;SDS011;11743;51.228;22.498;2022-10-31T01:24:23;32.50;;;21.77;;
23148;SDS011;11743;51.228;22.498;2022-10-31T01:24:45;32.97;;;21.77;;
23148;SDS011;11743;51.228;22.498;2022-10-31T01:25:07;33.97;;;22.15;;
23148;SDS011;11743;51.228;22.498;2022-10-31T01:25:30;32.38;;;21.23;;
23148;SDS011;11743;51.228;22.498;2022-10-31T01:26:42;32.42;;;22.02;;
23148;SDS011;11743;51.228;22.498;2022-10-31T01:27:04;32.85;;;21.85;;
23148;SDS011;11743;51.228;22.498;2022-10-31T01:27:26;33.67;;;21.63;;
23148;SDS011;11743;51.228;22.498;2022-10-31T01:27:48;32.17;;;21.95;;
23148;SDS011;11743;51.228;22.498;2022-10-31T01:28:10;31.52;;;22.73;;
23148;SDS011;11743;51.228;22.498;2022-10-31T01:28:33;31.42;;;20.92;;
23148;SDS011;11743;51.228;22.498;2022-10-31T01:28:57;35.22;;;22.30;;
23148;SDS011;11743;51.228;22.498;2022-10-31T01:29:20;37.88;;;23.92;;
23148;SDS011;11743;51.228;22.498;2022-10-31T01:29:42;41.38;;;25.40;;
23148;SDS011;11743;51.228;22.498;2022-10-31T01:30:04;36.95;;;23.75;;
23148;SDS011;11743;51.228;22.498;2022-10-31T01:30:26;34.17;;;23.17;;
23148;SDS011;11743;51.228;22.498;2022-10-31T01:30:48;34.22;;;22.80;;
23148;SDS011;11743;51.228;22.498;2022-10-31T01:31:10;33.95;;;23.15;;
23148;SDS011;11743;51.228;22.498;2022-10-31T01:31:34;33.42;;;22.25;;
23148;SDS011;11743;51.228;22.498;2022-10-31T01:31:58;32.10;;;21.67;;
23148;SDS011;11743;51.228;22.498;2022-10-31T01:32:19;33.60;;;22.27;;
23148;SDS011;11743;51.228;22.498;2022-10-31T01:32:42;30.23;;;21.40;;
23148;SDS011;11743;51.228;22.498;2022-10-31T01:33:03;31.02;;;21.55;;
23148;SDS011;11743;51.228;22.498;2022-10-31T01:33:25;32.40;;;21.48;;
23148;SDS011;11743;51.228;22.498;2022-10-31T01:33:47;32.55;;;21.65;;
23148;SDS011;11743;51.228;22.498;2022-10-31T01:34:13;30.75;;;21.65;;
23148;SDS011;11743;51.228;22.498;2022-10-31T01:34:36;32.00;;;21.98;;
23148;SDS011;11743;51.228;22.498;2022-10-31T01:34:58;32.22;;;21.25;;
23148;SDS011;11743;51.228;22.498;2022-10-31T01:35:20;31.05;;;21.52;;
23148;SDS011;11743;51.228;22.498;2022-10-31T01:35:42;29.33;;;20.27;;
23148;SDS011;11743;51.228;22.498;2022-10-31T01:36:20;30.17;;;20.17;;
23148;SDS011;11743;51.228;22.498;2022-10-31T01:36:53;30.38;;;20.95;;
23148;SDS011;11743;51.228;22.498;2022-10-31T01:37:16;32.45;;;20.60;;
23148;SDS011;11743;51.228;22.498;2022-10-31T01:37:37;32.15;;;20.58;;
23148;SDS011;11743;51.228;22.498;2022-10-31T01:38:00;30.63;;;21.15;;
23148;SDS011;11743;51.228;22.498;2022-10-31T01:38:21;29.58;;;20.65;;
23148;SDS011;11743;51.228;22.498;2022-10-31T01:38:44;29.80;;;21.33;;
23148;SDS011;11743;51.228;22.498;2022-10-31T01:39:08;31.23;;;21.20;;
23148;SDS011;11743;51.228;22.498;2022-10-31T01:39:32;30.17;;;20.08;;
23148;SDS011;11743;51.228;22.498;2022-10-31T01:39:54;30.27;;;20.75;;
23148;SDS011;11743;51.228;22.498;2022-10-31T01:40:16;31.25;;;21.30;;
23148;SDS011;11743;51.228;22.498;2022-10-31T01:40:38;26.60;;;20.08;;
23148;SDS011;11743;51.228;22.498;2022-10-31T01:41:00;24.88;;;19.15;;
23148;SDS011;11743;51.228;22.498;2022-10-31T01:41:24;30.52;;;20.13;;
23148;SDS011;11743;51.228;22.498;2022-10-31T01:41:48;26.83;;;19.65;;
23148;SDS011;11743;51.228;22.498;2022-10-31T01:42:15;29.52;;;19.85;;
23148;SDS011;11743;51.228;22.498;2022-10-31T01:42:40;29.20;;;21.05;;
23148;SDS011;11743;51.228;22.498;2022-10-31T01:43:02;29.75;;;20.67;;
23148;SDS011;11743;51.228;22.498;2022-10-31T01:43:30;31.27;;;20.52;;
23148;SDS011;11743;51.228;22.498;2022-10-31T01:44:46;32.08;;;20.77;;
23148;SDS011;11743;51.228;22.498;2022-10-31T01:45:09;30.92;;;21.13;;
23148;SDS011;11743;51.228;22.498;2022-10-31T01:45:32;29.63;;;20.63;;
23148;SDS011;11743;51.228;22.498;2022-10-31T01:45:53;30.00;;;20.92;;
23148;SDS011;11743;51.228;22.498;2022-10-31T01:46:16;32.63;;;21.75;;
23148;SDS011;11743;51.228;22.498;2022-10-31T01:46:43;36.22;;;21.30;;
23148;SDS011;11743;51.228;22.498;2022-10-31T01:47:15;29.27;;;20.48;;
23148;SDS011;11743;51.228;22.498;2022-10-31T01:47:42;29.38;;;19.77;;
23148;SDS011;11743;51.228;22.498;2022-10-31T01:48:09;33.20;;;20.77;;
23148;SDS011;11743;51.228;22.498;2022-10-31T01:48:36;29.38;;;20.33;;
23148;SDS011;11743;51.228;22.498;2022-10-31T01:48:59;29.00;;;19.90;;
23148;SDS011;11743;51.228;22.498;2022-10-31T01:49:49;32.60;;;20.88;;
23148;SDS011;11743;51.228;22.498;2022-10-31T01:50:24;31.90;;;20.83;;
23148;SDS011;11743;51.228;22.498;2022-10-31T01:50:51;27.35;;;20.33;;
23148;SDS011;11743;51.228;22.498;2022-10-31T01:51:16;30.65;;;21.02;;
23148;SDS011;11743;51.228;22.498;2022-10-31T01:51:41;31.48;;;21.48;;
23148;SDS011;11743;51.228;22.498;2022-10-31T01:52:48;32.35;;;21.23;;
23148;SDS011;11743;51.228;22.498;2022-10-31T01:53:12;31.60;;;21.27;;
23148;SDS011;11743;51.228;22.498;2022-10-31T01:53:34;33.25;;;22.25;;
23148;SDS011;11743;51.228;22.498;2022-10-31T01:53:58;30.90;;;21.42;;
23148;SDS011;11743;51.228;22.498;2022-10-31T01:54:26;31.88;;;21.83;;
23148;SDS011;11743;51.228;22.498;2022-10-31T01:54:51;31.83;;;21.67;;
23148;SDS011;11743;51.228;22.498;2022-10-31T01:55:29;31.00;;;20.95;;
23148;SDS011;11743;51.228;22.498;2022-10-31T01:55:53;30.48;;;20.88;;
23148;SDS011;11743;51.228;22.498;2022-10-31T01:56:15;29.42;;;21.30;;
23148;SDS011;11743;51.228;22.498;2022-10-31T01:56:39;30.88;;;21.50;;
23148;SDS011;11743;51.228;22.498;2022-10-31T01:57:03;30.92;;;21.75;;
23148;SDS011;11743;51.228;22.498;2022-10-31T01:57:28;30.85;;;21.40;;
23148;SDS011;11743;51.228;22.498;2022-10-31T01:57:53;33.10;;;22.20;;
23148;SDS011;11743;51.228;22.498;2022-10-31T01:58:20;33.25;;;21.88;;
23148;SDS011;11743;51.228;22.498;2022-10-31T01:58:43;36.40;;;21.60;;
23148;SDS011;11743;51.228;22.498;2022-10-31T01:59:07;30.35;;;21.40;;
23148;SDS011;11743;51.228;22.498;2022-10-31T01:59:32;32.67;;;21.73;;
23148;SDS011;11743;51.228;22.498;2022-10-31T01:59:58;30.33;;;20.92;;
23148;SDS011;11743;51.228;22.498;2022-10-31T02:00:27;33.85;;;22.20;;
23148;SDS011;11743;51.228;22.498;2022-10-31T02:00:49;33.88;;;21.23;;
23148;SDS011;11743;51.228;22.498;2022-10-31T02:01:16;34.70;;;21.40;;
23148;SDS011;11743;51.228;22.498;2022-10-31T02:01:39;33.38;;;21.27;;
23148;SDS011;11743;51.228;22.498;2022-10-31T02:02:02;38.75;;;21.83;;
23148;SDS011;11743;51.228;22.498;2022-10-31T02:02:25;38.90;;;21.27;;
23148;SDS011;11743;51.228;22.498;2022-10-31T02:02:48;34.78;;;20.50;;
23148;SDS011;11743;51.228;22.498;2022-10-31T02:03:11;32.83;;;20.65;;
23148;SDS011;11743;51.228;22.498;2022-10-31T02:03:33;31.92;;;21.13;;
23148;SDS011;11743;51.228;22.498;2022-10-31T02:03:55;34.90;;;22.17;;
23148;SDS011;11743;51.228;22.498;2022-10-31T02:04:17;35.70;;;21.75;;
23148;SDS011;11743;51.228;22.498;2022-10-31T02:04:41;36.50;;;21.83;;
23148;SDS011;11743;51.228;22.498;2022-10-31T02:05:08;35.22;;;21.77;;
23148;SDS011;11743;51.228;22.498;2022-10-31T02:05:33;35.90;;;21.50;;
23148;SDS011;11743;51.228;22.498;2022-10-31T02:05:55;36.60;;;22.15;;
23148;SDS011;11743;51.228;22.498;2022-10-31T02:06:21;35.13;;;22.02;;
23148;SDS011;11743;51.228;22.498;2022-10-31T02:07:02;33.97;;;20.92;;
23148;SDS011;11743;51.228;22.498;2022-10-31T02:07:39;35.38;;;21.25;;
23148;SDS011;11743;51.228;22.498;2022-10-31T02:08:08;34.63;;;20.23;;
23148;SDS011;11743;51.228;22.498;2022-10-31T02:08:35;30.70;;;20.30;;
23148;SDS011;11743;51.228;22.498;2022-10-31T02:08:57;30.80;;;20.73;;
23148;SDS011;11743;51.228;22.498;2022-10-31T02:09:21;31.95;;;21.98;;
23148;SDS011;11743;51.228;22.498;2022-10-31T02:09:45;35.50;;;21.50;;
23148;SDS011;11743;51.228;22.498;2022-10-31T02:10:08;35.10;;;20.05;;
23148;SDS011;11743;51.228;22.498;2022-10-31T02:10:31;30.33;;;20.05;;
23148;SDS011;11743;51.228;22.498;2022-10-31T02:10:54;28.42;;;19.60;;
23148;SDS011;11743;51.228;22.498;2022-10-31T02:11:18;35.28;;;20.60;;
23148;SDS011;11743;51.228;22.498;2022-10-31T02:11:41;30.65;;;20.77;;
23148;SDS011;11743;51.228;22.498;2022-10-31T02:12:05;32.55;;;20.92;;
23148;SDS011;11743;51.228;22.498;2022-10-31T02:12:28;34.35;;;21.42;;
23148;SDS011;11743;51.228;22.498;2022-10-31T02:12:54;32.65;;;21.00;;
23148;SDS011;11743;51.228;22.498;2022-10-31T02:13:18;35.27;;;22.57;;
23148;SDS011;11743;51.228;22.498;2022-10-31T02:13:41;34.30;;;22.02;;
23148;SDS011;11743;51.228;22.498;2022-10-31T02:14:03;32.88;;;21.73;;
23148;SDS011;11743;51.228;22.498;2022-10-31T02:14:26;28.67;;;20.40;;
23148;SDS011;11743;51.228;22.498;2022-10-31T02:14:50;30.08;;;20.85;;
23148;SDS011;11743;51.228;22.498;2022-10-31T02:15:12;32.70;;;21.88;;
23148;SDS011;11743;51.228;22.498;2022-10-31T02:15:35;30.00;;;20.88;;
23148;SDS011;11743;51.228;22.498;2022-10-31T02:15:58;32.38;;;20.67;;
23148;SDS011;11743;51.228;22.498;2022-10-31T02:16:20;30.35;;;21.08;;
23148;SDS011;11743;51.228;22.498;2022-10-31T02:16:43;31.65;;;22.17;;
23148;SDS011;11743;51.228;22.498;2022-10-31T02:17:05;32.80;;;22.15;;